Airfield :







YOU CAN JOIN US ON...

 
LOGIN :

Register | Disclaimer

   EN    FR    IT 

 









Legend :    VFR   Marginal VFR   IFR   Intensive IFR   Very Intensive IFR
Visi :
Ceiling :
>= 8 km
>= 3000ft
5 to 8 km
1000 to 3000 ft
1500m to 5 km
500 to 1000 ft
800 to 1500m
200 to 500 ft
< 800m
< 200 ft
Symbols :   Thunderstorms  Fog  Heavy snow  Heavy precipitations  Wind > 20 kt






- Airport Elevation : 95 ft
- IATA code : GEO


SYCJ - Cheddi Jagan Int.

CURRENT METAR :
  • 300600Z 24004KT 9999 FEW014 SCT070 24/23 Q1011 NOSIG

EXPIRED METARs :
  • 300500Z 35004KT 9999 FEW014 BKN070 24/24 Q1012 NOSIG RMK-RESH
  • 300400Z VRB02KT 9999 -SHRA FEW014 SCT070 24/23 Q1013 NOSIG

TAF TAF SYCJ
Valid from the 30 at 06:00 until the 31 at 06:00 UTC


300500Z 3006/3106 VRB02KT 5000 SHRA-RA BKN014 BKN038
BECMG 3011/3013 08010KT 9999 BKN017 SCT040 BKN090
TEMPO 3014/3019 5000 SHRA-RA BKN014 OVC080



MET'MAP, your aeronautical weather chart ! - Copyright ORBIFLY December 2007 - Disclaimer

ORBIFLY MET'MAP TEAM :

Programming & Development : Alexandra Zaïnal
Concept & original design : Baudouin d'Aumeries
Assistance for programming : Marc-Olivier Méhu
Technical & hardware support : Manuel Goepfert

Contact : metmap@orbifly.com




SOURCES & CREDITS :

   NOAA